CheckWX is a tool to help pilots better visualize weather data.  It is not intended as a substitute for an official pre-flight weather briefing.

16:04:04 UTC

CYRJ METAR
Roberval Airport
Roberval, Canada
Current

1 hour ago

CYRJ 071500Z 17003KT 20SM -SHSN FEW030 BKN081 M12/M16 A3021 RMK SC1AC7 SC TR PCPN VRY LGT SLP249
Observed
Dec-7 @ 15:00 UTC
Wind
  • 170° at 3 KTS
Visibility
20 SM
Flight Rules
VFR
Conditions
Light Snow
Cloud Levels
  • Few at 3,000' AGL
  • Broken at 8,100' AGL
Temperature
-12°C / 10°F
Dewpoint
-16°C / 3°F
Humidity
72%
Altimeter
30.21" Hg
Pressure
1023.02 hPa
Previous

2 hours ago

CYRJ 071408Z 24003KT 210V290 25SM -SHSN FEW025 BKN087 BKN200 M15/M18 A3021 RMK SC1AC6CI1 SC TR PCPN VRY LGT SLP247
Observed
Dec-7 @ 14:08 UTC
Wind
  • 240° at 3 KTS
Visibility
25 SM
Flight Rules
VFR
Conditions
Light Snow
Cloud Levels
  • Few at 2,500' AGL
  • Broken at 8,700' AGL
  • Broken at 20,000' AGL
Temperature
-15°C / 5°F
Dewpoint
-18°C / -0°F
Humidity
78%
Altimeter
30.21" Hg
Pressure
1023.02 hPa
Previous

2 hours ago

CYRJ 071400Z VRB02KT 25SM FEW030 BKN087 BKN200 M15/M18 A3021 RMK SC1AC5CI1 SC TR CI TR SLP246
Observed
Dec-7 @ 14:00 UTC
Wind
  • Variable at 2 KTS
Visibility
25 SM
Flight Rules
VFR
Cloud Levels
  • Few at 3,000' AGL
  • Broken at 8,700' AGL
  • Broken at 20,000' AGL
Temperature
-15°C / 5°F
Dewpoint
-18°C / -0°F
Humidity
78%
Altimeter
30.21" Hg
Pressure
1023.02 hPa